Trimble, Missouri
Current Conditions -  °F | °C
As of 10:53 AM on Thursday 30 Oct 2014 (Local Time) from KMCI Reporting Station
Few Clouds Few Clouds  
Wind Chill: 58°   Ceiling: Unl
Heat Index: 58°   Visibility: 10mi
Dew Point: 42°   Wind: 12mph
Humidity: 56%   Direction: 300°WNW
Pressure: 30.02"   Gusts: NA
Location:  39.47°N, 94.56°W
Report Text: KMCI 301553Z 30010KT 10SM FEW100 14/06 A3002 RMK AO2 SLP165 T01440056
Loading
Personal Weather Stations






























Interactive Weather Map New forecast layout! Learn more

10-Day Weather Forecast

Advertisements
Track Severe Weather on mobile